| Date | Time | Temp. (oF) | Dew Point (oF) | Rel. Hum. (%) | Press. (in.) | Wind Dir. | Wind Speed (mph) | Hourly Rainfall (in.) |
|
|---|---|---|---|---|---|---|---|---|---|
| 1 | 02/02 | 00:00 | 29 | 28 | 97 | 29.82 | ESE | 6 | 0.00 |
| 2 | 02/01 | 23:00 | 29 | 27 | 95 | 29.88 | E | 3 | 0.00 |
| 3 | 02/01 | 22:00 | 31 | 25 | 81 | 29.93 | SE | 5 | 0.00 |
| 4 | 02/01 | 21:00 | 33 | 24 | 71 | 29.97 | SE | 3 | 0.00 |
| 5 | 02/01 | 20:00 | 33 | 24 | 71 | 29.99 | SE | 9 | 0.00 |
| 6 | 02/01 | 19:00 | 32 | 24 | 75 | 30.04 | SE | 1 | 0.00 |
| 7 | 02/01 | 18:00 | 32 | 27 | 82 | 30.05 | ENE | 4 | 0.00 |
| 8 | 02/01 | 17:00 | 32 | 26 | 80 | 30.09 | S | 2 | 0.00 |
| 9 | 02/01 | 16:00 | 37 | 23 | 57 | 30.06 | S | 6 | 0.00 |
| 10 | 02/01 | 15:00 | 38 | 24 | 57 | 30.08 | S | 2 | 0.00 |
| 11 | 02/01 | 14:00 | 37 | 23 | 58 | 30.11 | SSE | 1 | 0.00 |
| 12 | 02/01 | 13:00 | 36 | 23 | 61 | 30.14 | SSE | 0 | 0.00 |
| 13 | 02/01 | 12:00 | 37 | 24 | 60 | 30.18 | SSW | 0 | 0.00 |
| 14 | 02/01 | 11:00 | 34 | 24 | 68 | 30.21 | NE | 0 | 0.00 |
| 15 | 02/01 | 10:00 | 30 | 23 | 77 | 30.23 | ENE | 0 | 0.00 |
| 16 | 02/01 | 09:00 | 25 | 19 | 80 | 30.25 | SSE | 0 | 0.00 |
| 17 | 02/01 | 08:00 | 21 | 17 | 86 | 30.24 | SSE | 0 | 0.00 |
| 18 | 02/01 | 07:00 | 20 | 16 | 86 | 30.24 | SSW | 0 | 0.00 |
| 19 | 02/01 | 06:00 | 18 | 15 | 89 | 30.24 | NE | 0 | 0.00 |
| 20 | 02/01 | 05:00 | 17 | 15 | 92 | 30.24 | SSE | 0 | 0.00 |
| 21 | 02/01 | 04:00 | 15 | 13 | 92 | 30.24 | S | 0 | 0.00 |
| 22 | 02/01 | 03:00 | 12 | 9 | 88 | 30.24 | SW | 0 | 0.00 |
| 23 | 02/01 | 02:00 | 13 | 9 | 84 | 30.25 | NNW | 0 | 0.00 |
| 24 | 02/01 | 01:00 | 14 | 10 | 84 | 30.24 | NE | 0 | 0.00 |